Terminal Aerodrome Forecast
Issued by NWS Shreveport, LA

Home | Current Version | Previous Version | Text Only | Print | Product List | Glossary On
Versions: 1 2 3 4 5 6 7 8 9 10 11 12 13 14 15 16 17 18 19 20 21
000
FTUS44 KSHV 261143
TAFGGG
TAF
KGGG 261143Z 2612/2712 16005KT P6SM FEW250
     FM261600 17008KT P6SM SCT250
     FM262100 17013G20KT P6SM BKN250
     FM270300 17012KT P6SM BKN050
     FM270600 18012KT P6SM BKN015 OVC025=

USA.gov is the U.S. government's official web portal to all federal, state and local government web resources and services.